sensor_id;sensor_type;location;lat;lon;timestamp;P1;durP1;ratioP1;P2;durP2;ratioP2
7881;SDS011;3986;41.884;23.466;2024-02-26T00:02:20;51.83;;;14.13;;
7881;SDS011;3986;41.884;23.466;2024-02-26T00:04:48;73.73;;;15.33;;
7881;SDS011;3986;41.884;23.466;2024-02-26T00:07:15;44.77;;;12.90;;
7881;SDS011;3986;41.884;23.466;2024-02-26T00:09:42;49.27;;;13.47;;
7881;SDS011;3986;41.884;23.466;2024-02-26T00:12:09;65.57;;;14.97;;
7881;SDS011;3986;41.884;23.466;2024-02-26T00:14:36;72.07;;;15.73;;
7881;SDS011;3986;41.884;23.466;2024-02-26T00:17:02;74.27;;;17.23;;
7881;SDS011;3986;41.884;23.466;2024-02-26T00:19:29;67.23;;;15.60;;
7881;SDS011;3986;41.884;23.466;2024-02-26T00:21:57;66.70;;;17.03;;
7881;SDS011;3986;41.884;23.466;2024-02-26T00:24:24;53.23;;;16.23;;
7881;SDS011;3986;41.884;23.466;2024-02-26T00:26:51;46.97;;;14.60;;
7881;SDS011;3986;41.884;23.466;2024-02-26T00:29:19;54.87;;;14.20;;
7881;SDS011;3986;41.884;23.466;2024-02-26T00:31:46;56.67;;;14.93;;
7881;SDS011;3986;41.884;23.466;2024-02-26T00:34:13;61.37;;;14.20;;
7881;SDS011;3986;41.884;23.466;2024-02-26T00:36:40;68.33;;;15.13;;
7881;SDS011;3986;41.884;23.466;2024-02-26T00:39:08;68.93;;;14.97;;
7881;SDS011;3986;41.884;23.466;2024-02-26T00:41:37;63.47;;;13.87;;
7881;SDS011;3986;41.884;23.466;2024-02-26T00:44:05;68.40;;;13.97;;
7881;SDS011;3986;41.884;23.466;2024-02-26T00:46:32;55.37;;;13.00;;
7881;SDS011;3986;41.884;23.466;2024-02-26T00:48:59;73.20;;;15.90;;
7881;SDS011;3986;41.884;23.466;2024-02-26T00:51:27;69.80;;;14.80;;
7881;SDS011;3986;41.884;23.466;2024-02-26T00:53:53;66.33;;;14.90;;
7881;SDS011;3986;41.884;23.466;2024-02-26T00:56:22;61.43;;;13.37;;
7881;SDS011;3986;41.884;23.466;2024-02-26T00:58:49;73.07;;;23.73;;
7881;SDS011;3986;41.884;23.466;2024-02-26T01:01:16;61.17;;;14.07;;
7881;SDS011;3986;41.884;23.466;2024-02-26T01:03:43;62.40;;;12.83;;
7881;SDS011;3986;41.884;23.466;2024-02-26T01:06:09;62.67;;;15.10;;
7881;SDS011;3986;41.884;23.466;2024-02-26T01:08:36;61.00;;;13.37;;
7881;SDS011;3986;41.884;23.466;2024-02-26T01:11:04;71.17;;;15.97;;
7881;SDS011;3986;41.884;23.466;2024-02-26T01:13:32;72.77;;;14.23;;
7881;SDS011;3986;41.884;23.466;2024-02-26T01:15:59;54.40;;;11.77;;
7881;SDS011;3986;41.884;23.466;2024-02-26T01:18:26;52.27;;;12.10;;
7881;SDS011;3986;41.884;23.466;2024-02-26T01:20:53;64.27;;;13.60;;
7881;SDS011;3986;41.884;23.466;2024-02-26T01:23:20;70.73;;;13.93;;
7881;SDS011;3986;41.884;23.466;2024-02-26T01:25:47;70.80;;;14.47;;
7881;SDS011;3986;41.884;23.466;2024-02-26T01:28:14;63.80;;;13.83;;
7881;SDS011;3986;41.884;23.466;2024-02-26T01:30:42;60.03;;;12.50;;
7881;SDS011;3986;41.884;23.466;2024-02-26T01:33:09;74.57;;;14.13;;
7881;SDS011;3986;41.884;23.466;2024-02-26T01:35:36;68.67;;;14.07;;
7881;SDS011;3986;41.884;23.466;2024-02-26T01:38:03;105.37;;;15.27;;
7881;SDS011;3986;41.884;23.466;2024-02-26T01:40:31;60.23;;;13.30;;
7881;SDS011;3986;41.884;23.466;2024-02-26T01:42:58;63.50;;;14.03;;
7881;SDS011;3986;41.884;23.466;2024-02-26T01:45:25;46.13;;;11.30;;
7881;SDS011;3986;41.884;23.466;2024-02-26T01:47:53;64.60;;;12.10;;
7881;SDS011;3986;41.884;23.466;2024-02-26T01:50:21;49.63;;;10.13;;
7881;SDS011;3986;41.884;23.466;2024-02-26T01:52:49;78.73;;;12.20;;
7881;SDS011;3986;41.884;23.466;2024-02-26T01:55:17;61.73;;;11.77;;
7881;SDS011;3986;41.884;23.466;2024-02-26T01:57:45;70.83;;;11.87;;
7881;SDS011;3986;41.884;23.466;2024-02-26T02:00:14;59.70;;;10.37;;
7881;SDS011;3986;41.884;23.466;2024-02-26T02:02:42;61.60;;;10.43;;
7881;SDS011;3986;41.884;23.466;2024-02-26T02:05:13;74.83;;;11.17;;
7881;SDS011;3986;41.884;23.466;2024-02-26T02:07:42;58.23;;;10.40;;
7881;SDS011;3986;41.884;23.466;2024-02-26T02:10:09;66.27;;;10.70;;
7881;SDS011;3986;41.884;23.466;2024-02-26T02:12:36;86.23;;;11.93;;
7881;SDS011;3986;41.884;23.466;2024-02-26T02:15:05;65.40;;;9.90;;
7881;SDS011;3986;41.884;23.466;2024-02-26T02:17:32;56.37;;;9.30;;
7881;SDS011;3986;41.884;23.466;2024-02-26T02:19:59;51.97;;;9.13;;
7881;SDS011;3986;41.884;23.466;2024-02-26T02:22:27;65.10;;;10.10;;
7881;SDS011;3986;41.884;23.466;2024-02-26T02:24:54;45.77;;;8.57;;
7881;SDS011;3986;41.884;23.466;2024-02-26T02:27:21;55.23;;;11.30;;
7881;SDS011;3986;41.884;23.466;2024-02-26T02:29:48;70.90;;;11.57;;
7881;SDS011;3986;41.884;23.466;2024-02-26T02:32:15;91.50;;;12.77;;
7881;SDS011;3986;41.884;23.466;2024-02-26T02:34:43;63.77;;;10.27;;
7881;SDS011;3986;41.884;23.466;2024-02-26T02:37:10;60.30;;;9.30;;
7881;SDS011;3986;41.884;23.466;2024-02-26T02:39:39;57.07;;;8.80;;
7881;SDS011;3986;41.884;23.466;2024-02-26T02:42:08;60.37;;;8.17;;
7881;SDS011;3986;41.884;23.466;2024-02-26T02:44:35;61.57;;;17.07;;
7881;SDS011;3986;41.884;23.466;2024-02-26T02:47:02;64.80;;;12.53;;
7881;SDS011;3986;41.884;23.466;2024-02-26T02:49:28;50.57;;;8.73;;
7881;SDS011;3986;41.884;23.466;2024-02-26T02:51:55;38.90;;;7.40;;
7881;SDS011;3986;41.884;23.466;2024-02-26T02:54:22;48.87;;;8.20;;
7881;SDS011;3986;41.884;23.466;2024-02-26T02:56:50;53.03;;;7.37;;
7881;SDS011;3986;41.884;23.466;2024-02-26T02:59:17;55.17;;;7.97;;
7881;SDS011;3986;41.884;23.466;2024-02-26T03:01:44;76.20;;;11.00;;
7881;SDS011;3986;41.884;23.466;2024-02-26T03:04:11;64.07;;;14.73;;
7881;SDS011;3986;41.884;23.466;2024-02-26T03:06:38;74.80;;;16.47;;
7881;SDS011;3986;41.884;23.466;2024-02-26T03:09:05;49.20;;;8.37;;
7881;SDS011;3986;41.884;23.466;2024-02-26T03:11:31;48.17;;;8.90;;
7881;SDS011;3986;41.884;23.466;2024-02-26T03:14:00;40.13;;;9.07;;
7881;SDS011;3986;41.884;23.466;2024-02-26T03:16:27;58.23;;;10.20;;
7881;SDS011;3986;41.884;23.466;2024-02-26T03:18:54;61.67;;;11.70;;
7881;SDS011;3986;41.884;23.466;2024-02-26T03:21:20;60.97;;;10.17;;
7881;SDS011;3986;41.884;23.466;2024-02-26T03:23:47;58.67;;;9.90;;
7881;SDS011;3986;41.884;23.466;2024-02-26T03:26:14;58.43;;;9.53;;
7881;SDS011;3986;41.884;23.466;2024-02-26T03:28:41;48.83;;;9.57;;
7881;SDS011;3986;41.884;23.466;2024-02-26T03:31:09;53.47;;;10.27;;
7881;SDS011;3986;41.884;23.466;2024-02-26T03:33:37;63.70;;;10.13;;
7881;SDS011;3986;41.884;23.466;2024-02-26T03:36:04;42.53;;;9.60;;
7881;SDS011;3986;41.884;23.466;2024-02-26T03:38:32;62.13;;;11.20;;
7881;SDS011;3986;41.884;23.466;2024-02-26T03:40:59;57.73;;;11.10;;
7881;SDS011;3986;41.884;23.466;2024-02-26T03:43:26;60.53;;;10.87;;
7881;SDS011;3986;41.884;23.466;2024-02-26T03:45:52;59.03;;;12.50;;
7881;SDS011;3986;41.884;23.466;2024-02-26T03:48:21;59.50;;;12.37;;
7881;SDS011;3986;41.884;23.466;2024-02-26T03:50:47;68.13;;;12.70;;
7881;SDS011;3986;41.884;23.466;2024-02-26T03:53:14;64.53;;;14.27;;
7881;SDS011;3986;41.884;23.466;2024-02-26T03:55:41;80.23;;;21.33;;
7881;SDS011;3986;41.884;23.466;2024-02-26T03:58:08;91.97;;;28.77;;
7881;SDS011;3986;41.884;23.466;2024-02-26T04:00:34;70.13;;;26.23;;
7881;SDS011;3986;41.884;23.466;2024-02-26T04:03:01;66.87;;;18.90;;
7881;SDS011;3986;41.884;23.466;2024-02-26T04:05:29;63.73;;;16.13;;
7881;SDS011;3986;41.884;23.466;2024-02-26T04:07:56;67.30;;;18.40;;
7881;SDS011;3986;41.884;23.466;2024-02-26T04:10:23;82.27;;;17.03;;
7881;SDS011;3986;41.884;23.466;2024-02-26T04:12:50;75.97;;;17.10;;
7881;SDS011;3986;41.884;23.466;2024-02-26T04:15:17;66.73;;;15.27;;
7881;SDS011;3986;41.884;23.466;2024-02-26T04:17:43;65.80;;;17.40;;
7881;SDS011;3986;41.884;23.466;2024-02-26T04:20:13;71.30;;;16.47;;
7881;SDS011;3986;41.884;23.466;2024-02-26T04:22:43;53.47;;;16.57;;
7881;SDS011;3986;41.884;23.466;2024-02-26T04:25:10;70.37;;;20.50;;
7881;SDS011;3986;41.884;23.466;2024-02-26T04:27:37;74.57;;;22.77;;
7881;SDS011;3986;41.884;23.466;2024-02-26T04:30:05;75.43;;;34.37;;
7881;SDS011;3986;41.884;23.466;2024-02-26T04:32:32;72.63;;;30.87;;
7881;SDS011;3986;41.884;23.466;2024-02-26T04:34:59;76.37;;;30.03;;
7881;SDS011;3986;41.884;23.466;2024-02-26T04:37:26;71.73;;;26.27;;
7881;SDS011;3986;41.884;23.466;2024-02-26T04:39:57;85.80;;;26.53;;
7881;SDS011;3986;41.884;23.466;2024-02-26T04:42:25;82.80;;;26.17;;
7881;SDS011;3986;41.884;23.466;2024-02-26T04:44:52;72.67;;;24.80;;
7881;SDS011;3986;41.884;23.466;2024-02-26T04:47:19;70.67;;;24.83;;
7881;SDS011;3986;41.884;23.466;2024-02-26T04:49:47;70.57;;;26.40;;
7881;SDS011;3986;41.884;23.466;2024-02-26T04:52:14;78.07;;;28.57;;
7881;SDS011;3986;41.884;23.466;2024-02-26T04:54:40;75.27;;;33.27;;
7881;SDS011;3986;41.884;23.466;2024-02-26T04:57:08;73.03;;;31.50;;
7881;SDS011;3986;41.884;23.466;2024-02-26T04:59:35;74.50;;;33.77;;
7881;SDS011;3986;41.884;23.466;2024-02-26T05:02:03;87.37;;;35.53;;
7881;SDS011;3986;41.884;23.466;2024-02-26T05:04:29;151.97;;;98.37;;
7881;SDS011;3986;41.884;23.466;2024-02-26T05:06:56;113.93;;;62.57;;
7881;SDS011;3986;41.884;23.466;2024-02-26T05:09:23;114.53;;;59.83;;
7881;SDS011;3986;41.884;23.466;2024-02-26T05:11:50;111.90;;;63.63;;
7881;SDS011;3986;41.884;23.466;2024-02-26T05:14:18;113.70;;;56.77;;
7881;SDS011;3986;41.884;23.466;2024-02-26T05:16:45;85.53;;;53.07;;
7881;SDS011;3986;41.884;23.466;2024-02-26T05:19:12;97.50;;;60.50;;
7881;SDS011;3986;41.884;23.466;2024-02-26T05:21:39;109.90;;;54.90;;
7881;SDS011;3986;41.884;23.466;2024-02-26T05:24:07;88.37;;;53.53;;
7881;SDS011;3986;41.884;23.466;2024-02-26T05:26:34;87.47;;;54.13;;
7881;SDS011;3986;41.884;23.466;2024-02-26T05:29:01;110.57;;;55.27;;
7881;SDS011;3986;41.884;23.466;2024-02-26T05:31:29;99.83;;;53.77;;
7881;SDS011;3986;41.884;23.466;2024-02-26T05:33:56;118.83;;;63.90;;
7881;SDS011;3986;41.884;23.466;2024-02-26T05:36:23;133.40;;;72.03;;
7881;SDS011;3986;41.884;23.466;2024-02-26T05:38:50;114.73;;;64.33;;
7881;SDS011;3986;41.884;23.466;2024-02-26T05:41:17;126.10;;;64.93;;
7881;SDS011;3986;41.884;23.466;2024-02-26T05:43:48;141.70;;;75.07;;
7881;SDS011;3986;41.884;23.466;2024-02-26T05:46:16;153.60;;;77.70;;
7881;SDS011;3986;41.884;23.466;2024-02-26T05:48:44;124.67;;;61.57;;
7881;SDS011;3986;41.884;23.466;2024-02-26T05:51:11;121.33;;;55.17;;
7881;SDS011;3986;41.884;23.466;2024-02-26T05:53:38;108.03;;;55.67;;
7881;SDS011;3986;41.884;23.466;2024-02-26T05:56:05;114.27;;;53.57;;
7881;SDS011;3986;41.884;23.466;2024-02-26T05:58:32;131.43;;;79.57;;
7881;SDS011;3986;41.884;23.466;2024-02-26T06:00:59;129.17;;;56.20;;
7881;SDS011;3986;41.884;23.466;2024-02-26T06:03:26;115.17;;;50.17;;
7881;SDS011;3986;41.884;23.466;2024-02-26T06:05:54;124.27;;;51.47;;
7881;SDS011;3986;41.884;23.466;2024-02-26T06:08:21;85.53;;;44.13;;
7881;SDS011;3986;41.884;23.466;2024-02-26T06:10:48;85.67;;;38.67;;
7881;SDS011;3986;41.884;23.466;2024-02-26T06:13:14;82.30;;;35.37;;
7881;SDS011;3986;41.884;23.466;2024-02-26T06:15:41;65.67;;;35.87;;
7881;SDS011;3986;41.884;23.466;2024-02-26T06:18:08;89.03;;;34.23;;
7881;SDS011;3986;41.884;23.466;2024-02-26T06:20:35;91.40;;;35.57;;
7881;SDS011;3986;41.884;23.466;2024-02-26T06:23:03;76.83;;;33.57;;
7881;SDS011;3986;41.884;23.466;2024-02-26T06:25:30;80.60;;;36.13;;
7881;SDS011;3986;41.884;23.466;2024-02-26T06:27:57;95.37;;;38.00;;
7881;SDS011;3986;41.884;23.466;2024-02-26T06:30:24;97.27;;;38.13;;
7881;SDS011;3986;41.884;23.466;2024-02-26T06:32:51;108.30;;;44.80;;
7881;SDS011;3986;41.884;23.466;2024-02-26T06:35:18;121.60;;;60.40;;
7881;SDS011;3986;41.884;23.466;2024-02-26T06:37:44;95.23;;;53.87;;
7881;SDS011;3986;41.884;23.466;2024-02-26T06:40:13;107.17;;;57.70;;
7881;SDS011;3986;41.884;23.466;2024-02-26T06:42:40;128.80;;;53.83;;
7881;SDS011;3986;41.884;23.466;2024-02-26T06:45:09;110.43;;;53.23;;
7881;SDS011;3986;41.884;23.466;2024-02-26T06:47:36;116.77;;;48.77;;
7881;SDS011;3986;41.884;23.466;2024-02-26T06:50:03;118.30;;;42.17;;
7881;SDS011;3986;41.884;23.466;2024-02-26T06:52:30;104.57;;;41.07;;
7881;SDS011;3986;41.884;23.466;2024-02-26T06:54:56;107.27;;;44.13;;
7881;SDS011;3986;41.884;23.466;2024-02-26T06:57:25;117.10;;;51.07;;
7881;SDS011;3986;41.884;23.466;2024-02-26T06:59:51;102.63;;;54.73;;
7881;SDS011;3986;41.884;23.466;2024-02-26T07:02:18;140.73;;;59.20;;
7881;SDS011;3986;41.884;23.466;2024-02-26T07:04:45;117.30;;;57.03;;
7881;SDS011;3986;41.884;23.466;2024-02-26T07:07:12;188.67;;;59.07;;
7881;SDS011;3986;41.884;23.466;2024-02-26T07:09:41;141.40;;;59.50;;
7881;SDS011;3986;41.884;23.466;2024-02-26T07:12:08;106.27;;;56.10;;
7881;SDS011;3986;41.884;23.466;2024-02-26T07:14:37;139.70;;;54.97;;
7881;SDS011;3986;41.884;23.466;2024-02-26T07:17:04;131.00;;;66.77;;
7881;SDS011;3986;41.884;23.466;2024-02-26T07:19:30;136.63;;;73.93;;
7881;SDS011;3986;41.884;23.466;2024-02-26T07:21:57;135.67;;;66.77;;
7881;SDS011;3986;41.884;23.466;2024-02-26T07:24:26;140.33;;;62.13;;
7881;SDS011;3986;41.884;23.466;2024-02-26T07:26:53;123.13;;;64.40;;
7881;SDS011;3986;41.884;23.466;2024-02-26T07:29:20;144.67;;;61.17;;
7881;SDS011;3986;41.884;23.466;2024-02-26T07:31:48;104.27;;;52.53;;
7881;SDS011;3986;41.884;23.466;2024-02-26T07:34:15;117.40;;;48.47;;
7881;SDS011;3986;41.884;23.466;2024-02-26T07:36:42;99.80;;;45.40;;
7881;SDS011;3986;41.884;23.466;2024-02-26T07:39:09;116.00;;;44.20;;
7881;SDS011;3986;41.884;23.466;2024-02-26T07:41:36;118.33;;;45.27;;
7881;SDS011;3986;41.884;23.466;2024-02-26T07:44:04;145.80;;;74.57;;
7881;SDS011;3986;41.884;23.466;2024-02-26T07:46:30;149.10;;;74.50;;
7881;SDS011;3986;41.884;23.466;2024-02-26T07:48:59;132.20;;;66.93;;
7881;SDS011;3986;41.884;23.466;2024-02-26T07:51:25;117.20;;;67.73;;
7881;SDS011;3986;41.884;23.466;2024-02-26T07:53:52;150.10;;;70.60;;
7881;SDS011;3986;41.884;23.466;2024-02-26T07:56:19;138.47;;;69.70;;
7881;SDS011;3986;41.884;23.466;2024-02-26T07:58:46;142.30;;;68.50;;
7881;SDS011;3986;41.884;23.466;2024-02-26T08:01:12;113.93;;;62.13;;
7881;SDS011;3986;41.884;23.466;2024-02-26T08:03:40;118.33;;;65.53;;
7881;SDS011;3986;41.884;23.466;2024-02-26T08:06:09;168.67;;;65.33;;
7881;SDS011;3986;41.884;23.466;2024-02-26T08:08:35;124.27;;;58.03;;
7881;SDS011;3986;41.884;23.466;2024-02-26T08:11:03;107.93;;;42.73;;
7881;SDS011;3986;41.884;23.466;2024-02-26T08:13:30;89.53;;;42.33;;
7881;SDS011;3986;41.884;23.466;2024-02-26T08:15:57;115.60;;;46.80;;
7881;SDS011;3986;41.884;23.466;2024-02-26T08:18:24;92.27;;;44.97;;
7881;SDS011;3986;41.884;23.466;2024-02-26T08:20:50;94.13;;;41.27;;
7881;SDS011;3986;41.884;23.466;2024-02-26T08:23:19;83.23;;;46.27;;
7881;SDS011;3986;41.884;23.466;2024-02-26T08:25:45;113.93;;;49.93;;
7881;SDS011;3986;41.884;23.466;2024-02-26T08:28:13;105.87;;;46.60;;
7881;SDS011;3986;41.884;23.466;2024-02-26T08:30:43;76.30;;;39.43;;
7881;SDS011;3986;41.884;23.466;2024-02-26T08:33:09;119.83;;;42.93;;
7881;SDS011;3986;41.884;23.466;2024-02-26T08:35:36;112.27;;;38.70;;
7881;SDS011;3986;41.884;23.466;2024-02-26T08:38:03;101.90;;;36.70;;
7881;SDS011;3986;41.884;23.466;2024-02-26T08:40:31;144.97;;;43.80;;
7881;SDS011;3986;41.884;23.466;2024-02-26T08:42:58;109.93;;;36.23;;
7881;SDS011;3986;41.884;23.466;2024-02-26T08:45:25;96.90;;;37.00;;
7881;SDS011;3986;41.884;23.466;2024-02-26T08:47:52;106.33;;;37.87;;
7881;SDS011;3986;41.884;23.466;2024-02-26T08:50:19;121.33;;;43.13;;
7881;SDS011;3986;41.884;23.466;2024-02-26T08:52:46;138.40;;;47.97;;
7881;SDS011;3986;41.884;23.466;2024-02-26T08:55:15;105.83;;;43.37;;
7881;SDS011;3986;41.884;23.466;2024-02-26T08:57:43;115.80;;;46.83;;
7881;SDS011;3986;41.884;23.466;2024-02-26T09:00:10;131.00;;;50.60;;
7881;SDS011;3986;41.884;23.466;2024-02-26T09:02:38;111.17;;;37.97;;
7881;SDS011;3986;41.884;23.466;2024-02-26T09:05:05;129.73;;;29.07;;
7881;SDS011;3986;41.884;23.466;2024-02-26T09:07:32;77.50;;;25.67;;
7881;SDS011;3986;41.884;23.466;2024-02-26T09:09:59;138.73;;;30.47;;
7881;SDS011;3986;41.884;23.466;2024-02-26T09:12:26;107.90;;;27.67;;
7881;SDS011;3986;41.884;23.466;2024-02-26T09:14:54;119.10;;;25.50;;
7881;SDS011;3986;41.884;23.466;2024-02-26T09:17:22;128.80;;;30.23;;
7881;SDS011;3986;41.884;23.466;2024-02-26T09:19:49;80.43;;;33.07;;
7881;SDS011;3986;41.884;23.466;2024-02-26T09:22:16;117.23;;;24.67;;
7881;SDS011;3986;41.884;23.466;2024-02-26T09:24:42;69.63;;;21.17;;
7881;SDS011;3986;41.884;23.466;2024-02-26T09:27:09;87.73;;;25.10;;
7881;SDS011;3986;41.884;23.466;2024-02-26T09:29:36;101.10;;;21.73;;
7881;SDS011;3986;41.884;23.466;2024-02-26T09:32:04;79.90;;;22.90;;
7881;SDS011;3986;41.884;23.466;2024-02-26T09:34:32;105.10;;;18.27;;
7881;SDS011;3986;41.884;23.466;2024-02-26T09:36:58;84.63;;;15.33;;
7881;SDS011;3986;41.884;23.466;2024-02-26T09:39:25;75.30;;;15.60;;
7881;SDS011;3986;41.884;23.466;2024-02-26T09:41:53;73.33;;;15.23;;
7881;SDS011;3986;41.884;23.466;2024-02-26T09:44:19;88.87;;;16.17;;
7881;SDS011;3986;41.884;23.466;2024-02-26T09:46:47;61.47;;;15.97;;
7881;SDS011;3986;41.884;23.466;2024-02-26T09:49:16;116.90;;;18.73;;
7881;SDS011;3986;41.884;23.466;2024-02-26T09:51:44;142.60;;;20.37;;
7881;SDS011;3986;41.884;23.466;2024-02-26T09:54:13;76.73;;;14.97;;
7881;SDS011;3986;41.884;23.466;2024-02-26T09:56:41;93.90;;;16.50;;
7881;SDS011;3986;41.884;23.466;2024-02-26T09:59:10;97.53;;;17.17;;
7881;SDS011;3986;41.884;23.466;2024-02-26T10:01:39;92.47;;;23.48;;
7881;SDS011;3986;41.884;23.466;2024-02-26T10:04:09;122.82;;;21.85;;
7881;SDS011;3986;41.884;23.466;2024-02-26T10:06:38;91.95;;;20.90;;
7881;SDS011;3986;41.884;23.466;2024-02-26T10:09:06;93.35;;;22.45;;
7881;SDS011;3986;41.884;23.466;2024-02-26T10:11:36;91.65;;;20.30;;
7881;SDS011;3986;41.884;23.466;2024-02-26T10:14:04;123.57;;;23.35;;
7881;SDS011;3986;41.884;23.466;2024-02-26T10:16:31;104.70;;;16.27;;
7881;SDS011;3986;41.884;23.466;2024-02-26T10:18:59;115.45;;;17.70;;
7881;SDS011;3986;41.884;23.466;2024-02-26T10:21:26;92.80;;;19.38;;
7881;SDS011;3986;41.884;23.466;2024-02-26T10:23:54;106.63;;;20.25;;
7881;SDS011;3986;41.884;23.466;2024-02-26T10:26:21;120.30;;;25.42;;
7881;SDS011;3986;41.884;23.466;2024-02-26T10:28:48;117.95;;;19.80;;
7881;SDS011;3986;41.884;23.466;2024-02-26T10:31:15;92.47;;;14.90;;
7881;SDS011;3986;41.884;23.466;2024-02-26T10:33:42;78.53;;;13.43;;
7881;SDS011;3986;41.884;23.466;2024-02-26T10:36:09;105.95;;;16.55;;
7881;SDS011;3986;41.884;23.466;2024-02-26T10:38:37;116.03;;;17.38;;
7881;SDS011;3986;41.884;23.466;2024-02-26T10:41:05;107.85;;;17.75;;
7881;SDS011;3986;41.884;23.466;2024-02-26T10:43:33;147.73;;;21.17;;
7881;SDS011;3986;41.884;23.466;2024-02-26T10:46:00;102.05;;;19.20;;
7881;SDS011;3986;41.884;23.466;2024-02-26T10:48:27;124.43;;;23.10;;
7881;SDS011;3986;41.884;23.466;2024-02-26T10:50:54;96.80;;;15.48;;
7881;SDS011;3986;41.884;23.466;2024-02-26T10:53:22;54.38;;;12.45;;
7881;SDS011;3986;41.884;23.466;2024-02-26T10:55:52;88.78;;;15.00;;
7881;SDS011;3986;41.884;23.466;2024-02-26T10:58:23;146.23;;;17.13;;
7881;SDS011;3986;41.884;23.466;2024-02-26T11:00:51;111.45;;;15.52;;
7881;SDS011;3986;41.884;23.466;2024-02-26T11:03:18;87.60;;;15.00;;
7881;SDS011;3986;41.884;23.466;2024-02-26T11:05:47;110.95;;;15.57;;
7881;SDS011;3986;41.884;23.466;2024-02-26T11:08:14;130.02;;;19.25;;
7881;SDS011;3986;41.884;23.466;2024-02-26T11:10:43;94.05;;;15.88;;
7881;SDS011;3986;41.884;23.466;2024-02-26T11:13:10;113.22;;;17.67;;
7881;SDS011;3986;41.884;23.466;2024-02-26T11:15:41;133.48;;;19.00;;
7881;SDS011;3986;41.884;23.466;2024-02-26T11:18:09;124.93;;;16.73;;
7881;SDS011;3986;41.884;23.466;2024-02-26T11:20:38;80.55;;;13.43;;
7881;SDS011;3986;41.884;23.466;2024-02-26T11:23:07;80.22;;;12.50;;
7881;SDS011;3986;41.884;23.466;2024-02-26T11:25:34;116.88;;;13.93;;
7881;SDS011;3986;41.884;23.466;2024-02-26T11:28:03;86.15;;;13.20;;
7881;SDS011;3986;41.884;23.466;2024-02-26T11:30:32;75.82;;;12.85;;
7881;SDS011;3986;41.884;23.466;2024-02-26T11:33:05;134.05;;;20.30;;
7881;SDS011;3986;41.884;23.466;2024-02-26T11:35:33;93.60;;;14.10;;
7881;SDS011;3986;41.884;23.466;2024-02-26T11:38:00;99.93;;;14.18;;
7881;SDS011;3986;41.884;23.466;2024-02-26T11:40:27;103.90;;;14.13;;
7881;SDS011;3986;41.884;23.466;2024-02-26T11:42:54;72.13;;;12.90;;
7881;SDS011;3986;41.884;23.466;2024-02-26T11:45:47;86.13;;;14.35;;
7881;SDS011;3986;41.884;23.466;2024-02-26T11:48:21;103.35;;;13.65;;
7881;SDS011;3986;41.884;23.466;2024-02-26T11:50:49;64.40;;;10.60;;
7881;SDS011;3986;41.884;23.466;2024-02-26T11:53:21;105.28;;;15.82;;
7881;SDS011;3986;41.884;23.466;2024-02-26T11:58:46;72.00;;;12.50;;
7881;SDS011;3986;41.884;23.466;2024-02-26T12:04:16;84.57;;;12.63;;
7881;SDS011;3986;41.884;23.466;2024-02-26T12:06:47;103.95;;;12.68;;
7881;SDS011;3986;41.884;23.466;2024-02-26T12:09:35;76.75;;;9.98;;
7881;SDS011;3986;41.884;23.466;2024-02-26T12:12:03;71.10;;;9.52;;
7881;SDS011;3986;41.884;23.466;2024-02-26T12:14:33;121.97;;;12.43;;
7881;SDS011;3986;41.884;23.466;2024-02-26T12:17:01;93.00;;;11.23;;
7881;SDS011;3986;41.884;23.466;2024-02-26T12:19:33;68.57;;;10.35;;
7881;SDS011;3986;41.884;23.466;2024-02-26T12:22:01;103.23;;;12.40;;
7881;SDS011;3986;41.884;23.466;2024-02-26T12:24:27;106.70;;;10.87;;
7881;SDS011;3986;41.884;23.466;2024-02-26T12:26:54;106.33;;;11.33;;
7881;SDS011;3986;41.884;23.466;2024-02-26T12:29:21;118.00;;;12.17;;
7881;SDS011;3986;41.884;23.466;2024-02-26T12:31:48;118.82;;;12.65;;
7881;SDS011;3986;41.884;23.466;2024-02-26T12:34:15;86.87;;;10.67;;
7881;SDS011;3986;41.884;23.466;2024-02-26T12:36:43;96.77;;;11.37;;
7881;SDS011;3986;41.884;23.466;2024-02-26T12:39:11;126.67;;;13.97;;
7881;SDS011;3986;41.884;23.466;2024-02-26T12:41:38;77.80;;;9.80;;
7881;SDS011;3986;41.884;23.466;2024-02-26T12:44:05;62.05;;;9.95;;
7881;SDS011;3986;41.884;23.466;2024-02-26T12:46:33;46.73;;;8.00;;
7881;SDS011;3986;41.884;23.466;2024-02-26T12:49:00;63.50;;;9.27;;
7881;SDS011;3986;41.884;23.466;2024-02-26T12:51:27;84.80;;;10.43;;
7881;SDS011;3986;41.884;23.466;2024-02-26T12:53:55;87.00;;;14.00;;
7881;SDS011;3986;41.884;23.466;2024-02-26T12:56:22;71.67;;;9.43;;
7881;SDS011;3986;41.884;23.466;2024-02-26T12:58:52;164.17;;;15.47;;
7881;SDS011;3986;41.884;23.466;2024-02-26T13:01:22;109.23;;;11.10;;
7881;SDS011;3986;41.884;23.466;2024-02-26T13:03:51;75.60;;;9.57;;
7881;SDS011;3986;41.884;23.466;2024-02-26T13:06:18;75.60;;;9.57;;
7881;SDS011;3986;41.884;23.466;2024-02-26T13:08:47;78.50;;;9.67;;
7881;SDS011;3986;41.884;23.466;2024-02-26T13:11:15;96.28;;;10.70;;
7881;SDS011;3986;41.884;23.466;2024-02-26T13:13:42;69.77;;;9.77;;
7881;SDS011;3986;41.884;23.466;2024-02-26T13:16:09;79.83;;;10.53;;
7881;SDS011;3986;41.884;23.466;2024-02-26T13:18:39;97.50;;;15.77;;
7881;SDS011;3986;41.884;23.466;2024-02-26T13:21:07;98.67;;;12.47;;
7881;SDS011;3986;41.884;23.466;2024-02-26T13:23:35;70.50;;;10.53;;
7881;SDS011;3986;41.884;23.466;2024-02-26T13:26:02;88.90;;;10.90;;
7881;SDS011;3986;41.884;23.466;2024-02-26T13:28:30;56.43;;;8.03;;
7881;SDS011;3986;41.884;23.466;2024-02-26T13:30:58;97.30;;;12.43;;
7881;SDS011;3986;41.884;23.466;2024-02-26T13:33:26;74.27;;;9.73;;
7881;SDS011;3986;41.884;23.466;2024-02-26T13:35:54;96.60;;;10.90;;
7881;SDS011;3986;41.884;23.466;2024-02-26T13:38:22;101.33;;;11.83;;
7881;SDS011;3986;41.884;23.466;2024-02-26T13:40:49;85.73;;;9.30;;
7881;SDS011;3986;41.884;23.466;2024-02-26T13:43:16;70.60;;;9.57;;
7881;SDS011;3986;41.884;23.466;2024-02-26T13:45:45;95.03;;;11.27;;
7881;SDS011;3986;41.884;23.466;2024-02-26T13:48:13;91.27;;;10.00;;
7881;SDS011;3986;41.884;23.466;2024-02-26T13:50:40;71.67;;;9.30;;
7881;SDS011;3986;41.884;23.466;2024-02-26T13:53:10;72.93;;;9.50;;
7881;SDS011;3986;41.884;23.466;2024-02-26T13:55:39;127.17;;;11.93;;
7881;SDS011;3986;41.884;23.466;2024-02-26T13:58:07;60.07;;;8.93;;
7881;SDS011;3986;41.884;23.466;2024-02-26T14:00:37;83.90;;;11.73;;
7881;SDS011;3986;41.884;23.466;2024-02-26T14:03:05;59.93;;;9.40;;
7881;SDS011;3986;41.884;23.466;2024-02-26T14:05:32;73.73;;;11.33;;
7881;SDS011;3986;41.884;23.466;2024-02-26T14:07:59;82.40;;;10.13;;
7881;SDS011;3986;41.884;23.466;2024-02-26T14:10:25;77.83;;;9.67;;
7881;SDS011;3986;41.884;23.466;2024-02-26T14:12:52;97.20;;;11.73;;
7881;SDS011;3986;41.884;23.466;2024-02-26T14:15:19;56.27;;;10.77;;
7881;SDS011;3986;41.884;23.466;2024-02-26T14:17:46;98.00;;;10.63;;
7881;SDS011;3986;41.884;23.466;2024-02-26T14:20:19;77.07;;;11.23;;
7881;SDS011;3986;41.884;23.466;2024-02-26T14:22:46;89.17;;;13.23;;
7881;SDS011;3986;41.884;23.466;2024-02-26T14:25:14;88.40;;;15.50;;
7881;SDS011;3986;41.884;23.466;2024-02-26T14:27:41;76.90;;;12.43;;
7881;SDS011;3986;41.884;23.466;2024-02-26T14:30:08;65.27;;;12.50;;
7881;SDS011;3986;41.884;23.466;2024-02-26T14:32:35;105.13;;;15.10;;
7881;SDS011;3986;41.884;23.466;2024-02-26T14:35:03;64.70;;;14.87;;
7881;SDS011;3986;41.884;23.466;2024-02-26T14:37:33;60.47;;;15.07;;
7881;SDS011;3986;41.884;23.466;2024-02-26T14:39:59;81.27;;;12.53;;